Time;durP1;ratioP1;P1;durP2;ratioP2;P2;SDS_P1;SDS_P2;PMS_P1;PMS_P2;Temp;Humidity;BMP_temperature;BMP_pressure;BME280_temperature;BME280_humidity;BME280_pressure;Samples;Min_cycle;Max_cycle;Signal;HPM_P1;HPM_P2
2021/05/07 00:01:53;;;;;;;2.75;2.42;;;11.60;99.90;;;;;;5066954;28;20611;-71
2021/05/07 00:04:21;;;;;;;5.78;2.33;;;11.50;99.90;;;;;;5053489;28;20206;-71
2021/05/07 00:06:48;;;;;;;2.70;1.83;;;11.50;99.90;;;;;;5064566;28;20206;-71
2021/05/07 00:09:15;;;;;;;2.10;1.90;;;11.50;99.90;;;;;;5071126;28;20206;-71
2021/05/07 00:11:41;;;;;;;3.35;1.85;;;11.50;99.90;;;;;;5072291;28;20217;-71
2021/05/07 00:14:07;;;;;;;2.08;1.90;;;11.50;99.90;;;;;;5056516;28;20203;-71
2021/05/07 00:16:33;;;;;;;5.72;2.40;;;11.40;99.90;;;;;;5055532;28;20195;-71
2021/05/07 00:18:59;;;;;;;4.07;2.85;;;11.40;99.90;;;;;;5059344;28;20224;-70
2021/05/07 00:21:26;;;;;;;2.03;1.88;;;11.40;99.90;;;;;;5067929;28;20217;-70
2021/05/07 00:23:52;;;;;;;2.53;2.00;;;11.40;99.90;;;;;;5054451;28;20206;-71
2021/05/07 00:26:19;;;;;;;3.50;2.33;;;11.40;99.90;;;;;;5063650;28;20194;-72
2021/05/07 00:28:45;;;;;;;2.03;1.83;;;11.40;99.90;;;;;;5070705;28;20210;-71
2021/05/07 00:31:11;;;;;;;2.40;2.20;;;11.40;99.90;;;;;;5056823;28;20194;-71
2021/05/07 00:33:38;;;;;;;2.33;2.13;;;11.30;99.90;;;;;;5058295;28;21095;-71
2021/05/07 00:36:04;;;;;;;2.80;1.85;;;11.30;99.90;;;;;;5052056;28;20225;-72
2021/05/07 00:38:31;;;;;;;2.28;1.90;;;11.30;99.90;;;;;;5058993;28;20249;-71
2021/05/07 00:40:57;;;;;;;3.03;2.20;;;11.30;99.90;;;;;;5052931;28;20233;-72
2021/05/07 00:43:24;;;;;;;2.53;2.15;;;11.30;99.90;;;;;;5056131;28;20198;-71
2021/05/07 00:45:51;;;;;;;2.00;1.80;;;11.30;99.90;;;;;;5051503;28;20301;-70
2021/05/07 00:48:18;;;;;;;3.60;2.40;;;11.30;99.90;;;;;;5050337;28;20213;-71
2021/05/07 00:50:46;;;;;;;2.63;1.90;;;11.30;99.90;;;;;;5051631;28;20210;-72
2021/05/07 00:53:14;;;;;;;3.15;2.40;;;11.20;99.90;;;;;;5052030;28;20213;-72
2021/05/07 00:55:41;;;;;;;2.00;1.80;;;11.20;99.90;;;;;;5051585;28;20210;-70
2021/05/07 00:58:07;;;;;;;2.45;2.05;;;11.20;99.90;;;;;;5060906;28;20195;-70
2021/05/07 01:00:34;;;;;;;3.03;2.25;;;11.20;99.90;;;;;;5071013;28;20264;-71
2021/05/07 01:03:02;;;;;;;3.35;1.90;;;11.10;99.90;;;;;;5070820;28;20542;-71
2021/05/07 01:05:29;;;;;;;2.88;2.47;;;11.10;99.90;;;;;;5058969;28;20194;-70
2021/05/07 01:07:56;;;;;;;2.40;2.20;;;11.10;99.90;;;;;;5053512;28;20221;-71
2021/05/07 01:10:23;;;;;;;2.25;2.05;;;11.00;99.90;;;;;;5051613;28;20210;-70
2021/05/07 01:12:50;;;;;;;2.40;2.20;;;11.00;99.90;;;;;;5051248;28;20574;-70
2021/05/07 01:15:19;;;;;;;2.70;2.50;;;11.10;99.90;;;;;;5070072;28;20194;-71
2021/05/07 01:17:49;;;;;;;3.20;2.30;;;11.00;99.90;;;;;;5051368;28;20236;-71
2021/05/07 01:20:18;;;;;;;2.40;1.90;;;11.00;99.90;;;;;;5055158;28;20239;-71
2021/05/07 01:22:46;;;;;;;3.58;2.75;;;11.00;99.90;;;;;;5064006;28;20724;-71
2021/05/07 01:25:14;;;;;;;2.78;2.00;;;11.00;99.90;;;;;;5058591;28;20205;-71
2021/05/07 01:27:41;;;;;;;2.13;1.88;;;11.00;99.90;;;;;;5070764;28;20198;-72
2021/05/07 01:30:15;;;;;;;2.38;2.17;;;11.00;99.90;;;;;;5064676;28;20198;-72
2021/05/07 01:32:41;;;;;;;2.63;2.20;;;10.90;99.90;;;;;;5063061;28;20214;-72
2021/05/07 01:35:11;;;;;;;2.50;2.30;;;11.00;99.90;;;;;;5068396;28;20205;-72
2021/05/07 01:37:38;;;;;;;2.70;2.28;;;10.90;99.90;;;;;;5071029;28;20197;-72
2021/05/07 01:40:12;;;;;;;3.10;2.08;;;10.90;99.90;;;;;;5063893;28;20284;-72
2021/05/07 01:42:38;;;;;;;3.53;2.72;;;10.90;99.90;;;;;;5060642;28;20669;-72
2021/05/07 01:45:05;;;;;;;2.40;2.20;;;10.90;99.90;;;;;;5069591;28;20549;-72
2021/05/07 01:47:31;;;;;;;2.70;2.50;;;10.90;99.90;;;;;;5070111;28;20205;-72
2021/05/07 01:49:57;;;;;;;3.42;3.13;;;10.90;99.90;;;;;;5057738;28;20203;-72
2021/05/07 01:52:24;;;;;;;2.80;2.20;;;10.90;99.90;;;;;;5051170;28;20194;-72
2021/05/07 01:54:51;;;;;;;2.53;2.33;;;10.90;99.90;;;;;;5054599;28;20209;-72
2021/05/07 01:57:17;;;;;;;3.03;2.72;;;10.80;99.90;;;;;;5053181;28;20207;-73
2021/05/07 01:59:44;;;;;;;3.67;2.92;;;10.90;99.90;;;;;;5066085;28;20194;-72
2021/05/07 02:02:10;;;;;;;3.40;3.10;;;10.90;99.90;;;;;;5071859;28;20221;-72
2021/05/07 02:04:36;;;;;;;5.65;3.35;;;10.90;99.90;;;;;;5055050;28;20195;-72
2021/05/07 02:07:02;;;;;;;3.60;2.78;;;10.80;99.90;;;;;;5054957;28;20252;-72
2021/05/07 02:09:29;;;;;;;4.22;3.35;;;10.80;99.90;;;;;;5057016;28;20577;-72
2021/05/07 02:11:56;;;;;;;3.58;3.28;;;10.80;99.90;;;;;;5053387;28;20195;-72
2021/05/07 02:14:22;;;;;;;3.65;3.10;;;10.80;99.90;;;;;;5054679;28;20215;-72
2021/05/07 02:16:48;;;;;;;3.30;2.85;;;10.80;99.90;;;;;;5054820;28;20195;-72
2021/05/07 02:19:14;;;;;;;3.53;3.00;;;10.80;99.90;;;;;;5069531;28;20234;-71
2021/05/07 02:21:40;;;;;;;3.38;3.05;;;10.80;99.90;;;;;;5073283;28;20218;-72
2021/05/07 02:24:09;;;;;;;3.08;2.80;;;10.80;99.90;;;;;;5064968;28;20253;-71
2021/05/07 02:26:35;;;;;;;3.97;3.67;;;10.70;99.90;;;;;;5064892;28;20280;-72
2021/05/07 02:29:02;;;;;;;3.88;3.40;;;10.70;99.90;;;;;;5072879;28;20198;-72
2021/05/07 02:31:28;;;;;;;3.83;3.38;;;10.70;99.90;;;;;;5059962;28;20538;-72
2021/05/07 02:33:54;;;;;;;3.90;3.60;;;10.70;99.90;;;;;;5067833;28;20194;-72
2021/05/07 02:36:20;;;;;;;5.03;4.40;;;10.70;99.90;;;;;;5074636;28;20196;-73
2021/05/07 02:38:47;;;;;;;5.65;3.72;;;10.70;99.90;;;;;;5066915;28;20193;-72
2021/05/07 02:41:13;;;;;;;4.20;3.55;;;10.70;99.90;;;;;;5064764;28;20888;-73
2021/05/07 02:43:39;;;;;;;5.45;4.75;;;10.70;99.90;;;;;;5073748;28;20275;-73
2021/05/07 02:46:06;;;;;;;4.25;3.85;;;10.70;99.90;;;;;;5072760;28;20194;-72
2021/05/07 02:48:32;;;;;;;6.35;4.40;;;10.60;99.90;;;;;;5067105;28;20221;-71
2021/05/07 02:50:58;;;;;;;5.75;4.95;;;10.60;99.90;;;;;;5065530;28;20198;-72
2021/05/07 02:53:24;;;;;;;4.28;3.63;;;10.60;99.90;;;;;;5064633;28;20699;-70
2021/05/07 02:55:50;;;;;;;5.20;3.85;;;10.70;99.90;;;;;;5061092;28;20199;-71
2021/05/07 02:58:17;;;;;;;5.97;4.70;;;10.70;99.90;;;;;;5052899;28;20199;-72
2021/05/07 03:00:43;;;;;;;11.38;4.90;;;10.60;99.90;;;;;;5057197;28;20198;-72
2021/05/07 03:03:10;;;;;;;4.57;4.18;;;10.60;99.90;;;;;;5062906;28;20215;-72
2021/05/07 03:05:36;;;;;;;5.28;4.78;;;10.60;99.90;;;;;;5053110;28;20268;-72
2021/05/07 03:08:02;;;;;;;5.18;4.20;;;10.60;99.90;;;;;;5056953;28;20194;-72
2021/05/07 03:10:28;;;;;;;4.85;4.35;;;10.60;99.90;;;;;;5073616;28;20679;-72
2021/05/07 03:12:54;;;;;;;4.40;4.00;;;10.60;99.90;;;;;;5067600;28;20284;-72
2021/05/07 03:15:21;;;;;;;8.00;4.47;;;10.60;99.90;;;;;;5054233;28;20194;-72
2021/05/07 03:17:49;;;;;;;5.80;5.20;;;10.50;99.90;;;;;;5054353;28;20203;-72
2021/05/07 03:20:17;;;;;;;6.95;5.28;;;10.50;99.90;;;;;;5062770;28;20292;-72
2021/05/07 03:22:43;;;;;;;5.88;5.38;;;10.50;99.90;;;;;;5052744;28;20249;-72
2021/05/07 03:25:10;;;;;;;6.82;5.72;;;10.50;99.90;;;;;;5062608;28;20218;-71
2021/05/07 03:27:36;;;;;;;6.28;5.78;;;10.50;99.90;;;;;;5064261;28;20536;-71
2021/05/07 03:30:03;;;;;;;10.80;5.50;;;10.50;99.90;;;;;;5055128;28;20210;-71
2021/05/07 03:32:29;;;;;;;5.97;5.18;;;10.50;99.90;;;;;;5072481;28;20244;-72
2021/05/07 03:34:55;;;;;;;5.60;4.85;;;10.50;99.90;;;;;;5058312;28;20203;-71
2021/05/07 03:37:22;;;;;;;6.07;5.53;;;10.40;99.90;;;;;;5061503;28;20198;-72
2021/05/07 03:39:48;;;;;;;6.82;6.13;;;10.40;99.90;;;;;;5071398;28;20194;-72
2021/05/07 03:42:15;;;;;;;7.57;5.65;;;10.40;99.90;;;;;;5066021;28;20218;-72
2021/05/07 03:44:41;;;;;;;5.57;5.05;;;10.40;99.90;;;;;;5053227;28;20195;-71
2021/05/07 03:47:07;;;;;;;7.45;6.22;;;10.40;99.90;;;;;;5053732;28;20202;-71
2021/05/07 03:49:33;;;;;;;9.57;5.63;;;10.30;99.90;;;;;;5052733;28;20210;-71
2021/05/07 03:52:00;;;;;;;6.72;6.03;;;10.30;99.90;;;;;;5072097;28;20201;-71
2021/05/07 03:54:28;;;;;;;6.95;6.03;;;10.30;99.90;;;;;;5064010;28;20675;-72
2021/05/07 03:56:54;;;;;;;6.50;5.90;;;10.30;99.90;;;;;;5056598;28;20206;-72
2021/05/07 03:59:20;;;;;;;8.10;6.43;;;10.30;99.90;;;;;;5060136;28;20206;-72
2021/05/07 04:01:47;;;;;;;6.78;6.03;;;10.30;99.90;;;;;;5054573;28;20207;-72
2021/05/07 04:04:13;;;;;;;7.00;6.30;;;10.40;99.90;;;;;;5064040;28;20275;-72
2021/05/07 04:06:39;;;;;;;6.68;6.07;;;10.30;99.90;;;;;;5069178;28;20186;-72
2021/05/07 04:09:09;;;;;;;6.40;5.90;;;10.30;99.90;;;;;;5072842;28;20194;-72
2021/05/07 04:11:40;;;;;;;6.95;6.25;;;10.30;99.90;;;;;;5070335;28;20198;-72
2021/05/07 04:14:06;;;;;;;7.00;6.30;;;10.30;99.90;;;;;;5071433;28;20602;-72
2021/05/07 04:16:32;;;;;;;6.43;5.82;;;10.30;99.90;;;;;;5069386;28;20650;-73
2021/05/07 04:18:58;;;;;;;6.72;6.03;;;10.20;99.90;;;;;;5061680;28;20841;-73
2021/05/07 04:21:24;;;;;;;7.35;6.65;;;10.20;99.90;;;;;;5051529;28;20583;-73
2021/05/07 04:23:51;;;;;;;6.65;6.05;;;10.20;99.90;;;;;;5059941;28;20202;-72
2021/05/07 04:26:18;;;;;;;7.97;6.28;;;10.20;99.90;;;;;;5053971;28;20199;-72
2021/05/07 04:28:45;;;;;;;7.28;6.57;;;10.20;99.90;;;;;;5051395;28;20214;-72
2021/05/07 04:31:11;;;;;;;6.30;5.70;;;10.20;99.90;;;;;;5054771;28;20228;-72
2021/05/07 04:33:38;;;;;;;6.68;6.07;;;10.20;99.90;;;;;;5064178;28;20634;-72
2021/05/07 04:36:05;;;;;;;7.15;6.55;;;10.20;99.90;;;;;;5050687;28;20234;-72
2021/05/07 04:38:31;;;;;;;5.78;5.28;;;10.10;99.90;;;;;;5056664;28;20282;-71
2021/05/07 04:40:58;;;;;;;6.55;5.95;;;10.10;99.90;;;;;;5066027;28;20337;-71
2021/05/07 04:43:24;;;;;;;8.45;6.30;;;10.10;99.90;;;;;;5071166;28;20198;-72
2021/05/07 04:45:52;;;;;;;7.82;6.93;;;10.10;99.90;;;;;;5071452;28;20194;-72
2021/05/07 04:48:18;;;;;;;7.55;6.90;;;10.10;99.90;;;;;;5061374;28;20579;-73
2021/05/07 04:50:44;;;;;;;6.78;5.65;;;10.10;99.90;;;;;;5054802;28;20202;-72
2021/05/07 04:53:11;;;;;;;9.90;5.97;;;10.10;99.90;;;;;;5051351;28;20627;-72
2021/05/07 04:55:38;;;;;;;6.15;5.35;;;10.10;99.90;;;;;;5062994;28;20202;-72
2021/05/07 04:58:04;;;;;;;7.78;6.97;;;10.10;99.90;;;;;;5063699;28;20194;-72
2021/05/07 05:00:31;;;;;;;7.88;6.60;;;10.10;99.90;;;;;;5051354;28;20570;-73
2021/05/07 05:02:58;;;;;;;8.80;6.75;;;10.10;99.90;;;;;;5051203;28;20372;-73
2021/05/07 05:05:24;;;;;;;7.75;5.53;;;10.10;99.90;;;;;;5058015;28;20198;-73
2021/05/07 05:07:52;;;;;;;6.82;6.22;;;10.00;99.90;;;;;;5052976;28;20788;-73
2021/05/07 05:10:18;;;;;;;8.32;6.00;;;10.00;99.90;;;;;;5065848;28;20285;-74
2021/05/07 05:12:44;;;;;;;6.85;6.20;;;10.00;99.90;;;;;;5070301;28;20641;-74
2021/05/07 05:15:11;;;;;;;7.93;5.95;;;10.00;99.90;;;;;;5070407;28;20202;-73
2021/05/07 05:17:37;;;;;;;9.35;8.23;;;10.00;99.90;;;;;;5066983;28;20206;-72
2021/05/07 05:20:06;;;;;;;7.47;6.78;;;10.00;99.90;;;;;;5051856;28;20223;-72
2021/05/07 05:22:32;;;;;;;6.18;5.68;;;10.00;99.90;;;;;;5052236;28;20658;-72
2021/05/07 05:25:04;;;;;;;7.15;6.45;;;10.00;99.90;;;;;;5057348;28;20202;-72
2021/05/07 05:27:30;;;;;;;8.57;5.93;;;10.00;99.90;;;;;;5053114;28;20206;-72
2021/05/07 05:29:56;;;;;;;6.38;5.70;;;10.10;99.90;;;;;;5071167;28;20201;-72
2021/05/07 05:32:22;;;;;;;6.05;5.55;;;10.10;99.90;;;;;;5065674;28;20202;-73
2021/05/07 05:34:49;;;;;;;7.97;6.03;;;10.10;99.90;;;;;;5051396;28;20213;-74
2021/05/07 05:37:16;;;;;;;8.32;7.45;;;10.20;99.90;;;;;;5071528;28;20206;-73
2021/05/07 05:39:42;;;;;;;7.03;6.43;;;10.20;99.90;;;;;;5058940;28;20199;-73
2021/05/07 05:42:08;;;;;;;6.35;5.75;;;10.20;99.90;;;;;;5054966;28;20215;-73
2021/05/07 05:44:34;;;;;;;5.97;5.38;;;10.20;99.90;;;;;;5070045;28;20288;-73
2021/05/07 05:47:00;;;;;;;7.07;6.38;;;10.20;99.90;;;;;;5050240;28;20210;-73
2021/05/07 05:49:27;;;;;;;6.53;5.80;;;10.10;99.90;;;;;;5051334;28;20199;-73
2021/05/07 05:51:53;;;;;;;5.88;5.30;;;10.10;99.90;;;;;;5057554;28;20206;-72
2021/05/07 05:54:20;;;;;;;6.93;5.97;;;10.10;99.90;;;;;;5061279;28;20199;-73
2021/05/07 05:56:46;;;;;;;6.72;5.22;;;10.00;99.90;;;;;;5064053;28;20195;-73
2021/05/07 05:59:12;;;;;;;5.80;5.20;;;10.00;99.90;;;;;;5052236;28;20649;-73
2021/05/07 06:01:39;;;;;;;5.25;4.22;;;10.00;99.90;;;;;;5050893;28;20218;-73
2021/05/07 06:04:05;;;;;;;6.13;5.45;;;10.10;99.90;;;;;;5051335;28;20261;-73
2021/05/07 06:06:31;;;;;;;5.80;5.30;;;10.10;99.90;;;;;;5055280;28;20260;-73
2021/05/07 06:08:57;;;;;;;6.53;5.93;;;10.00;99.90;;;;;;5057071;28;20206;-73
2021/05/07 06:11:24;;;;;;;5.72;5.15;;;10.00;99.90;;;;;;5052249;28;20202;-72
2021/05/07 06:13:50;;;;;;;5.40;4.90;;;10.00;99.90;;;;;;5065532;28;20213;-72
2021/05/07 06:16:17;;;;;;;5.28;4.53;;;10.00;99.90;;;;;;5054358;28;20194;-72
2021/05/07 06:18:43;;;;;;;5.82;5.30;;;10.00;99.90;;;;;;5061250;28;20233;-72
2021/05/07 06:21:09;;;;;;;4.07;3.75;;;9.90;99.90;;;;;;5049689;28;20229;-71
2021/05/07 06:23:35;;;;;;;7.50;4.72;;;9.90;99.90;;;;;;5049569;28;20202;-72
2021/05/07 06:26:02;;;;;;;5.95;4.55;;;10.10;99.90;;;;;;5051519;28;20705;-72
2021/05/07 06:28:30;;;;;;;6.47;4.82;;;10.00;99.90;;;;;;5055985;28;20198;-71
2021/05/07 06:30:58;;;;;;;6.50;4.63;;;10.00;99.90;;;;;;5055666;28;20198;-72
2021/05/07 06:33:24;;;;;;;5.78;4.93;;;10.00;99.90;;;;;;5053283;28;20190;-71
2021/05/07 06:35:51;;;;;;;5.45;4.90;;;9.90;99.90;;;;;;5048307;28;20198;-71
2021/05/07 06:38:17;;;;;;;5.47;4.07;;;9.90;99.90;;;;;;5063126;28;20268;-69
2021/05/07 06:40:43;;;;;;;5.20;4.63;;;10.00;99.90;;;;;;5056866;28;20631;-70
2021/05/07 06:43:10;;;;;;;5.35;4.85;;;9.90;99.90;;;;;;5052600;28;20218;-72
2021/05/07 06:45:37;;;;;;;5.40;4.40;;;9.90;99.90;;;;;;5051855;28;20282;-69
2021/05/07 06:48:04;;;;;;;5.05;4.53;;;9.90;99.90;;;;;;5070684;28;20247;-71
2021/05/07 06:50:30;;;;;;;5.10;4.50;;;9.80;99.90;;;;;;5060858;28;20195;-72
2021/05/07 06:52:56;;;;;;;5.03;4.53;;;9.90;99.90;;;;;;5056714;28;20199;-71
2021/05/07 06:55:22;;;;;;;4.95;4.22;;;9.90;99.90;;;;;;5054124;28;20206;-71
2021/05/07 06:57:50;;;;;;;4.15;3.75;;;9.80;99.90;;;;;;5056522;28;20201;-70
2021/05/07 07:00:18;;;;;;;5.97;3.88;;;9.90;99.90;;;;;;5060473;28;20268;-72
2021/05/07 07:02:45;;;;;;;4.35;3.35;;;9.90;99.90;;;;;;5054276;28;20781;-72
2021/05/07 07:05:12;;;;;;;5.35;3.92;;;9.90;99.90;;;;;;5059900;28;20635;-72
2021/05/07 07:07:39;;;;;;;4.85;3.45;;;9.80;99.90;;;;;;5073284;28;20202;-72
2021/05/07 07:10:06;;;;;;;4.38;3.40;;;9.90;99.90;;;;;;5063382;28;20195;-72
2021/05/07 07:12:33;;;;;;;4.22;3.22;;;9.90;99.90;;;;;;5057337;28;20335;-72
2021/05/07 07:14:59;;;;;;;3.10;2.80;;;9.90;99.90;;;;;;5061001;28;20231;-70
2021/05/07 07:17:25;;;;;;;3.05;2.60;;;9.80;99.90;;;;;;5054883;28;20195;-70
2021/05/07 07:19:52;;;;;;;3.53;3.22;;;9.80;99.90;;;;;;5066054;28;20230;-70
2021/05/07 07:22:20;;;;;;;3.55;3.25;;;9.80;99.90;;;;;;5073377;28;20222;-71
2021/05/07 07:24:47;;;;;;;3.17;2.88;;;9.80;99.90;;;;;;5072468;28;20535;-70
2021/05/07 07:27:13;;;;;;;2.75;2.28;;;9.80;99.90;;;;;;5073497;28;20217;-71
2021/05/07 07:29:39;;;;;;;2.20;2.00;;;9.80;99.90;;;;;;5070912;28;20202;-71
2021/05/07 07:32:05;;;;;;;2.42;2.22;;;9.90;99.90;;;;;;5072487;28;20189;-71
2021/05/07 07:34:32;;;;;;;3.00;1.90;;;9.90;99.90;;;;;;5069289;28;20195;-72
2021/05/07 07:36:59;;;;;;;4.45;1.92;;;9.90;99.90;;;;;;5072552;28;20194;-72
2021/05/07 07:39:25;;;;;;;2.45;2.10;;;9.90;99.90;;;;;;5073369;28;20209;-72
2021/05/07 07:41:51;;;;;;;2.40;2.20;;;9.90;99.90;;;;;;5072813;28;20218;-72
2021/05/07 07:44:18;;;;;;;2.10;1.90;;;9.90;99.90;;;;;;5066396;28;20280;-71
2021/05/07 07:46:44;;;;;;;2.92;1.95;;;9.90;99.90;;;;;;5052446;28;20305;-71
2021/05/07 07:49:11;;;;;;;3.05;2.03;;;9.90;99.90;;;;;;5066375;28;20740;-71
2021/05/07 07:51:38;;;;;;;3.20;2.00;;;9.90;99.90;;;;;;5071485;28;20210;-71
2021/05/07 07:54:07;;;;;;;3.00;1.95;;;9.90;99.90;;;;;;5072101;28;20201;-71
2021/05/07 07:56:34;;;;;;;2.55;2.35;;;9.90;99.90;;;;;;5070771;28;20202;-71
2021/05/07 07:59:00;;;;;;;1.90;1.60;;;9.90;99.90;;;;;;5072152;28;20289;-71
2021/05/07 08:01:26;;;;;;;2.20;1.88;;;10.00;99.90;;;;;;5070172;28;20198;-72
2021/05/07 08:03:52;;;;;;;3.25;1.48;;;10.00;99.90;;;;;;5071898;28;20256;-70
2021/05/07 08:06:19;;;;;;;1.77;1.50;;;10.00;99.90;;;;;;5072049;28;20209;-70
2021/05/07 08:08:45;;;;;;;1.70;1.38;;;10.00;99.90;;;;;;5058639;28;20199;-70
2021/05/07 08:11:12;;;;;;;1.58;1.25;;;10.10;99.90;;;;;;5058329;28;20202;-70
2021/05/07 08:13:38;;;;;;;1.60;1.13;;;10.20;99.90;;;;;;5066143;28;20206;-70
2021/05/07 08:16:05;;;;;;;1.30;1.10;;;10.40;99.90;;;;;;5066080;28;20190;-70
2021/05/07 08:18:31;;;;;;;1.40;1.30;;;10.60;99.90;;;;;;5070965;28;21067;-70
2021/05/07 08:20:58;;;;;;;1.55;1.35;;;10.80;99.90;;;;;;5071565;28;20186;-70
2021/05/07 08:23:24;;;;;;;4.85;1.38;;;11.00;99.90;;;;;;5068165;28;20655;-70
2021/05/07 08:25:50;;;;;;;1.58;1.23;;;11.20;99.90;;;;;;5052079;28;20202;-71
2021/05/07 08:28:17;;;;;;;2.58;1.20;;;11.40;99.90;;;;;;5051926;28;20202;-71
2021/05/07 08:30:44;;;;;;;1.42;1.33;;;11.70;99.90;;;;;;5070214;28;20194;-71
2021/05/07 08:33:10;;;;;;;2.72;1.30;;;11.80;99.90;;;;;;5073134;28;20280;-70
2021/05/07 08:35:37;;;;;;;1.23;0.98;;;11.90;99.90;;;;;;5069110;28;20193;-71
2021/05/07 08:38:03;;;;;;;1.33;1.00;;;12.00;99.90;;;;;;5063629;28;20264;-71
2021/05/07 08:40:29;;;;;;;1.30;1.02;;;12.10;99.90;;;;;;5087287;28;20200;-71
2021/05/07 08:42:56;;;;;;;1.30;1.10;;;12.20;99.90;;;;;;5091283;28;20213;-71
2021/05/07 08:45:23;;;;;;;1.40;1.20;;;12.30;99.90;;;;;;5087165;28;20205;-71
2021/05/07 08:47:53;;;;;;;3.10;1.40;;;12.30;99.90;;;;;;5070558;28;20190;-71
2021/05/07 08:50:20;;;;;;;1.42;0.90;;;12.30;99.90;;;;;;5070835;28;20277;-71
2021/05/07 08:52:46;;;;;;;2.45;1.00;;;12.30;99.90;;;;;;5087747;28;20185;-71
2021/05/07 08:55:13;;;;;;;1.27;1.05;;;12.30;99.90;;;;;;5066090;28;20211;-71
2021/05/07 08:57:39;;;;;;;2.38;1.35;;;12.10;99.90;;;;;;5065521;28;20201;-71
2021/05/07 09:00:09;;;;;;;1.40;1.10;;;12.10;99.90;;;;;;5070828;28;20206;-71
2021/05/07 09:02:37;;;;;;;2.30;1.45;;;12.10;99.90;;;;;;5069135;28;20312;-71
2021/05/07 09:05:04;;;;;;;1.23;1.13;;;12.10;99.90;;;;;;5070723;28;20190;-71
2021/05/07 09:07:30;;;;;;;1.20;0.90;;;12.10;99.90;;;;;;5070201;28;20202;-71
2021/05/07 09:10:00;;;;;;;1.45;1.20;;;12.10;99.90;;;;;;5070742;28;20209;-71
2021/05/07 09:12:31;;;;;;;1.85;1.00;;;12.10;99.90;;;;;;5050861;28;20194;-71
2021/05/07 09:14:59;;;;;;;1.83;1.40;;;12.10;99.90;;;;;;5050956;28;20191;-71
2021/05/07 09:17:26;;;;;;;1.23;1.13;;;12.20;99.90;;;;;;5070393;28;20209;-71
2021/05/07 09:20:05;;;;;;;1.10;0.90;;;12.40;99.90;;;;;;5062666;28;20225;-72
2021/05/07 09:22:32;;;;;;;1.85;1.75;;;12.30;99.90;;;;;;5061883;28;20226;-74
2021/05/07 09:25:07;;;;;;;1.30;1.20;;;12.40;99.90;;;;;;5066467;28;20198;-71
2021/05/07 09:27:33;;;;;;;3.50;1.20;;;12.40;99.90;;;;;;5066351;28;20846;-71
2021/05/07 09:29:59;;;;;;;2.28;1.35;;;12.40;99.90;;;;;;5054769;28;20205;-71
2021/05/07 09:32:30;;;;;;;1.20;0.90;;;12.40;99.90;;;;;;5068450;28;20255;-71
2021/05/07 09:35:10;;;;;;;3.97;1.20;;;12.40;99.90;;;;;;5064292;28;20233;-71
2021/05/07 09:37:37;;;;;;;2.22;1.30;;;12.30;99.90;;;;;;5069315;28;20189;-72
2021/05/07 09:40:16;;;;;;;1.40;1.20;;;12.30;99.90;;;;;;5069074;28;20212;-72
2021/05/07 09:42:43;;;;;;;1.20;1.10;;;12.40;99.80;;;;;;5069229;28;20665;-71
2021/05/07 09:45:22;;;;;;;1.38;1.13;;;12.40;99.70;;;;;;5068763;28;20209;-71
2021/05/07 09:47:49;;;;;;;1.20;1.10;;;12.40;99.80;;;;;;5068907;28;20206;-71
2021/05/07 09:50:19;;;;;;;1.70;1.38;;;12.40;99.70;;;;;;5068000;28;20198;-72
2021/05/07 09:52:48;;;;;;;2.67;1.10;;;12.30;99.60;;;;;;5068991;28;20650;-72
2021/05/07 09:55:14;;;;;;;1.38;1.08;;;12.20;99.60;;;;;;5065302;28;20194;-72
2021/05/07 09:57:41;;;;;;;1.20;1.10;;;12.20;99.90;;;;;;5067281;28;20717;-71
2021/05/07 10:00:08;;;;;;;1.70;1.60;;;12.20;99.90;;;;;;5068208;28;20206;-72
2021/05/07 10:02:34;;;;;;;1.30;1.20;;;12.10;99.90;;;;;;5056732;28;20221;-71
2021/05/07 10:05:00;;;;;;;2.45;1.42;;;12.00;99.90;;;;;;5068871;28;20202;-71
2021/05/07 10:07:28;;;;;;;1.40;1.30;;;12.00;99.90;;;;;;5067884;28;20674;-71
2021/05/07 10:10:02;;;;;;;2.22;1.30;;;12.10;99.90;;;;;;5065713;28;20340;-70
2021/05/07 10:12:29;;;;;;;1.45;1.33;;;12.10;99.90;;;;;;5068630;28;20182;-70
2021/05/07 10:14:56;;;;;;;1.70;1.40;;;12.20;99.90;;;;;;5068656;28;20205;-71
2021/05/07 10:17:22;;;;;;;1.60;1.40;;;12.20;99.90;;;;;;5066192;28;20252;-72
2021/05/07 10:19:48;;;;;;;3.70;1.40;;;12.20;99.80;;;;;;5072389;28;20574;-72
2021/05/07 10:22:14;;;;;;;2.28;1.42;;;12.20;99.80;;;;;;5072748;28;20234;-71
2021/05/07 10:24:42;;;;;;;2.00;1.15;;;12.20;99.90;;;;;;5073516;28;20217;-71
2021/05/07 10:27:19;;;;;;;1.65;1.38;;;12.20;99.70;;;;;;5071292;28;20653;-71
2021/05/07 10:29:54;;;;;;;1.67;1.40;;;12.10;99.70;;;;;;5087418;28;20598;-71
2021/05/07 10:32:32;;;;;;;2.00;1.38;;;12.10;99.80;;;;;;5062688;28;20217;-72
2021/05/07 10:34:59;;;;;;;1.95;1.10;;;12.10;99.70;;;;;;5072577;28;20206;-72
2021/05/07 10:37:36;;;;;;;1.63;1.40;;;12.10;99.60;;;;;;5072101;28;20228;-72
2021/05/07 10:40:04;;;;;;;1.75;1.20;;;12.00;99.80;;;;;;5066188;28;20791;-72
2021/05/07 10:42:30;;;;;;;2.22;2.03;;;12.00;99.90;;;;;;5072225;28;20214;-72
2021/05/07 10:44:57;;;;;;;2.60;1.20;;;11.90;99.90;;;;;;5071542;28;20674;-71
2021/05/07 10:47:32;;;;;;;1.20;1.10;;;11.90;99.90;;;;;;5057082;28;20687;-71
2021/05/07 10:49:58;;;;;;;1.30;1.20;;;11.90;99.90;;;;;;5052157;28;20252;-71
2021/05/07 10:52:24;;;;;;;1.48;1.33;;;11.90;99.80;;;;;;5052573;28;20203;-72
2021/05/07 10:55:05;;;;;;;4.13;1.75;;;11.90;99.70;;;;;;5067187;28;20202;-71
2021/05/07 10:57:33;;;;;;;1.50;1.10;;;11.90;99.50;;;;;;5072597;28;20304;-71
2021/05/07 11:00:02;;;;;;;2.45;1.33;;;11.90;99.70;;;;;;5071316;28;20194;-71
2021/05/07 11:02:29;;;;;;;2.47;1.30;;;11.90;99.90;;;;;;5070355;28;20229;-72
2021/05/07 11:04:55;;;;;;;2.08;1.42;;;11.80;99.90;;;;;;5072487;28;20218;-72
2021/05/07 11:07:33;;;;;;;1.60;1.50;;;11.80;99.90;;;;;;5063318;28;20206;-72
2021/05/07 11:10:00;;;;;;;4.07;1.33;;;11.70;99.90;;;;;;5069399;28;20201;-72
2021/05/07 11:12:27;;;;;;;1.50;1.13;;;11.70;99.90;;;;;;5066649;28;20190;-72
2021/05/07 11:14:54;;;;;;;1.80;1.15;;;11.80;99.90;;;;;;5071980;28;20569;-73
2021/05/07 11:17:21;;;;;;;1.73;1.42;;;11.80;99.90;;;;;;5072877;28;20213;-73
2021/05/07 11:19:47;;;;;;;2.67;1.33;;;11.70;99.90;;;;;;5068917;28;20251;-71
2021/05/07 11:22:13;;;;;;;1.30;1.20;;;11.80;99.90;;;;;;5072129;28;20563;-71
2021/05/07 11:24:41;;;;;;;4.93;1.35;;;11.90;99.90;;;;;;5072772;28;20205;-71
2021/05/07 11:27:20;;;;;;;1.73;1.45;;;12.00;99.90;;;;;;5071754;28;20205;-71
2021/05/07 11:29:48;;;;;;;1.10;1.00;;;12.00;99.90;;;;;;5056334;28;20774;-72
2021/05/07 11:32:15;;;;;;;1.50;1.30;;;12.10;99.60;;;;;;5070560;28;20642;-71
2021/05/07 11:34:49;;;;;;;1.85;1.40;;;12.10;99.30;;;;;;5067256;28;20631;-71
2021/05/07 11:37:15;;;;;;;1.20;1.10;;;12.10;98.80;;;;;;5071436;28;20239;-72
2021/05/07 11:39:41;;;;;;;1.58;1.10;;;12.10;98.80;;;;;;5072373;28;20217;-71
2021/05/07 11:42:10;;;;;;;3.72;0.88;;;12.10;98.70;;;;;;5069576;28;20278;-72
2021/05/07 11:44:48;;;;;;;1.10;1.00;;;12.20;98.50;;;;;;5068758;28;20278;-71
2021/05/07 11:47:14;;;;;;;2.20;1.20;;;12.10;98.40;;;;;;5051807;28;20210;-71
2021/05/07 11:49:48;;;;;;;2.30;1.00;;;12.20;98.30;;;;;;5062215;28;20202;-71
2021/05/07 11:52:14;;;;;;;2.65;1.00;;;12.20;98.10;;;;;;5067585;28;20222;-70
2021/05/07 11:54:42;;;;;;;1.08;0.90;;;12.20;97.00;;;;;;5067664;28;20203;-72
2021/05/07 11:57:08;;;;;;;1.75;1.13;;;12.20;97.30;;;;;;5060750;28;20275;-71
2021/05/07 11:59:38;;;;;;;1.92;1.05;;;12.10;96.80;;;;;;5053178;28;20199;-71
2021/05/07 12:02:06;;;;;;;1.10;0.93;;;12.10;97.30;;;;;;5053139;28;20285;-72
2021/05/07 12:04:43;;;;;;;1.17;1.05;;;12.10;97.10;;;;;;5062247;28;20208;-72
2021/05/07 12:07:26;;;;;;;2.17;1.30;;;12.10;97.00;;;;;;5072157;28;20327;-71
2021/05/07 12:09:53;;;;;;;2.38;1.27;;;12.10;96.90;;;;;;5069797;28;20193;-71
2021/05/07 12:12:20;;;;;;;1.20;1.10;;;12.10;97.10;;;;;;5068203;28;20542;-71
2021/05/07 12:14:49;;;;;;;1.75;1.10;;;12.10;97.30;;;;;;5071706;28;20293;-72
2021/05/07 12:17:17;;;;;;;1.40;1.30;;;12.10;97.50;;;;;;5071401;28;20210;-71
2021/05/07 12:19:43;;;;;;;1.40;1.20;;;12.10;97.60;;;;;;5066405;28;20269;-72
2021/05/07 12:22:20;;;;;;;1.50;1.17;;;12.10;97.50;;;;;;5063240;28;20225;-72
2021/05/07 12:24:46;;;;;;;1.40;1.30;;;12.10;97.70;;;;;;5065193;28;20226;-70
2021/05/07 12:27:13;;;;;;;2.47;1.40;;;12.10;97.50;;;;;;5051418;28;20199;-70
2021/05/07 12:29:39;;;;;;;1.33;1.20;;;12.10;97.60;;;;;;5064282;28;20625;-70
2021/05/07 12:32:07;;;;;;;1.75;1.45;;;12.10;97.70;;;;;;5070678;28;20193;-70
2021/05/07 12:34:34;;;;;;;1.38;1.27;;;12.10;97.60;;;;;;5069844;28;20504;-70
2021/05/07 12:37:03;;;;;;;1.63;1.45;;;12.10;97.20;;;;;;5071106;28;20581;-70
2021/05/07 12:39:31;;;;;;;1.85;1.50;;;12.10;97.30;;;;;;5069262;28;20216;-70
2021/05/07 12:41:59;;;;;;;2.22;1.70;;;12.10;97.60;;;;;;5060438;28;20253;-70
2021/05/07 12:44:26;;;;;;;1.85;1.30;;;12.20;97.60;;;;;;5069764;28;20201;-69
2021/05/07 12:46:53;;;;;;;1.77;1.10;;;12.20;97.60;;;;;;5069808;28;20194;-69
2021/05/07 12:49:19;;;;;;;1.75;1.25;;;12.20;97.60;;;;;;5066688;28;20198;-69